Hlavní strana
METAR-TAF:

METAR-TAF

Letiště :

Rygge, Norsko

zeměpisná šířka: 59-23N, zeměpisná délka: 010-47E, výška: 5 m

Aktuální stav počasí

Zpráva byla vytvořena před 34 minutami, v 19:20 UTC
Severoseverozápadní vítr 6 kt
Teplota 9°C
Vlhkost vzduchu 53%
Tlak 1006 hPa
Viditelnost 10 km a více

METAR: ENRY 231920Z AUTO 34006KT 9999NDV NCD 09/M00 Q1006

Čas: 21:54 (19:54 UTC)

Předpověď počasí

Předpověď platná od 23 v 18 UTC do 24 v 18 UTC
Severoseverozápadní vítr 10 kt
Viditelnost 10 km a více
Žádná oblačnost pod 1500 m, nevyskytují se cumulonimby.

TAF: ENRY 2318/2418 34010KT CAVOK

Stav a předpovědi počasí z více než 4 000 letišť (zprávy METAR a TAF).

Červené a žluté tečky na mapě představují dostupné meteorologické stanice.

Když kurzor umístíte na tečku, zobrazí se název stanice.

Pak kliknutím zobrazíte stav a předpověď počasí.

Chcete-li změnit mapu, kliknutím na zelené tlačítko se znaménkem +mapu přiblížíte, kliknutím na zelené tlačítko se znaménkem – mapu oddálíte a kliknutím na zelené šipky přejdete na sousední mapy.


METAR-TAF: